Aviation Digital Data Service (ADDS)

Output produced by METARs form (1731 UTC 16 June 2019)
found at http://www.aviationweather.gov/metar/data/
 
Forecast for: WBGS (SIBU , MY)
Text: TAF WBGS 161700Z 1618/1718 VRB03KT 9999 SCT018
Forecast period: 1800 UTC 16 June 2019 to 1800 UTC 17 June 2019
Forecast type: FROM: standard forecast or significant change
Winds: variable direction winds at 3 MPH (3 knots; 1.5 m/s)
Visibility: 6 or more miles 10+ km)
Ceiling: at least 12,000 feet AGL
Clouds: scattered clouds at 1800 feet AGL
Weather: no significant weather forecast for this period
Text: TEMPO 1707/1709 5000 RA SCT016
Forecast period: 0700 to 0900 UTC 17 June 2019
Forecast type: TEMPORARY: The following changes expected for less than half the time period
Visibility: 3 miles (5 km)
Ceiling: at least 12,000 feet AGL
Clouds: scattered clouds at 1600 feet AGL
Weather: RA  (moderate rain)